Altheimer, Arkansas
Current Conditions -  °F | °C
As of 6:53 PM on Thursday 18 Dec 2014 (Local Time) from KPBF Reporting Station
Overcast Overcast  
Wind Chill: 39°   Ceiling: 800
Heat Index: 43°   Visibility: 8mi
Dew Point: 40°   Wind: 7mph
Humidity: 89%   Direction: 20°NNE
Pressure: 30.21"   Gusts: NA
Location:  34.32°N, 91.85°W
Report Text: KPBF 190053Z AUTO 02006KT 8SM OVC008 06/04 A3021 RMK AO2 CIG 006V011 SLP231 T00610044
Loading
Personal Weather Stations






























Interactive Weather Map New forecast layout! Learn more

10-Day Weather Forecast

Advertisements
Track Severe Weather on mobile